Taupo, New Zealand
Current Conditions -  °F | °C
As of 9:30 PM on Friday 24 Oct 2014 (Local Time) from NZAA Reporting Station
Clear Clear  
Wind Chill: 55°   Ceiling: Unl
Heat Index: 55°   Visibility: 6mi
Dew Point: 41°   Wind: 15mph
Humidity: 58%   Direction: 180°S
Pressure: 30.06"   Gusts: NA
Location:  38.69°S, 176.07°E
Report Text: NZAA 240930Z AUTO 18013KT 9999 NCD 13/05 Q1018 NOSIG
Loading
Personal Weather Stations






























Interactive Weather Map
Tropical Storm Tracking
New forecast layout! Learn more

10-Day Weather Forecast

Advertisements
Track Severe Weather on mobile